Time;durP1;ratioP1;P1;durP2;ratioP2;P2;SDS_P1;SDS_P2;PMS_P1;PMS_P2;Temp;Humidity;BMP_temperature;BMP_pressure;BME280_temperature;BME280_humidity;BME280_pressure;Samples;Min_cycle;Max_cycle;Signal;HPM_P1;HPM_P2
2022/07/16 00:02:52;;;;;;;15.70;3.30;;;;;;;;;;4947960;28;20144;-58
2022/07/16 00:05:19;;;;;;;23.20;3.97;;;;;;;;;;4945246;28;20043;-57
2022/07/16 00:07:47;;;;;;;20.17;3.67;;;;;;;;;;4948402;28;20047;-57
2022/07/16 00:10:14;;;;;;;;;;;;;;;;;;4945832;28;20043;-56
2022/07/16 00:12:41;;;;;;;20.67;3.15;;;;;;;;;;4949205;28;19942;-53
2022/07/16 00:15:09;;;;;;;21.95;3.42;;;;;;;;;;4948012;28;20050;-58
2022/07/16 00:17:37;;;;;;;24.60;3.55;;;;;;;;;;4942347;28;20051;-56
2022/07/16 00:20:05;;;;;;;21.85;3.22;;;;;;;;;;4945730;28;20081;-57
2022/07/16 00:22:32;;;;;;;18.50;3.13;;;;;;;;;;4943766;28;20083;-54
2022/07/16 00:24:59;;;;;;;22.08;3.55;;;;;;;;;;4946684;28;20129;-58
2022/07/16 00:27:27;;;;;;;23.15;3.42;;;;;;;;;;4948768;28;20778;-56
2022/07/16 00:29:54;;;;;;;13.98;2.70;;;;;;;;;;4946376;28;20140;-52
2022/07/16 00:32:21;;;;;;;27.10;3.83;;;;;;;;;;4941885;28;20102;-57
2022/07/16 00:34:49;;;;;;;22.77;3.17;;;;;;;;;;4946788;28;20145;-62
2022/07/16 00:37:16;;;;;;;16.05;3.13;;;;;;;;;;4947008;28;20441;-53
2022/07/16 00:39:43;;;;;;;11.48;3.15;;;;;;;;;;4950186;28;20132;-54
2022/07/16 00:42:11;;;;;;;19.73;4.38;;;;;;;;;;4946152;28;20083;-53
2022/07/16 00:44:39;;;;;;;24.98;4.50;;;;;;;;;;4942059;28;20486;-51
2022/07/16 00:47:06;;;;;;;19.27;3.50;;;;;;;;;;4942819;28;20082;-51
2022/07/16 00:49:34;;;;;;;16.13;3.58;;;;;;;;;;4942275;28;20051;-52
2022/07/16 00:52:01;;;;;;;20.27;3.33;;;;;;;;;;4944538;28;20109;-58
2022/07/16 00:54:29;;;;;;;24.23;4.00;;;;;;;;;;4941544;28;20094;-61
2022/07/16 00:56:57;;;;;;;20.33;3.47;;;;;;;;;;4944667;28;20075;-60
2022/07/16 00:59:24;;;;;;;25.08;3.33;;;;;;;;;;4943142;28;20083;-60
2022/07/16 01:01:51;;;;;;;;;;;;;;;;;;4947832;28;20051;-60
2022/07/16 01:04:19;;;;;;;23.15;3.30;;;;;;;;;;4943613;28;19966;-61
2022/07/16 01:06:46;;;;;;;21.35;3.63;;;;;;;;;;4944625;28;20405;-61
2022/07/16 01:09:14;;;;;;;19.20;3.00;;;;;;;;;;4949750;28;20044;-51
2022/07/16 01:11:43;;;;;;;17.60;3.33;;;;;;;;;;4945488;28;20528;-47
2022/07/16 01:14:11;;;;;;;21.50;3.97;;;;;;;;;;4949022;28;20516;-61
2022/07/16 01:16:38;;;;;;;18.67;3.70;;;;;;;;;;4946029;28;20127;-60
2022/07/16 01:19:05;;;;;;;14.70;3.45;;;;;;;;;;4949183;28;20135;-61
2022/07/16 01:21:33;;;;;;;19.27;2.97;;;;;;;;;;4955635;28;20138;-61
2022/07/16 01:24:00;;;;;;;;;;;;;;;;;;4952432;28;20055;-61
2022/07/16 01:26:27;;;;;;;22.30;3.03;;;;;;;;;;4946735;28;19926;-61
2022/07/16 01:28:55;;;;;;;22.23;3.53;;;;;;;;;;4952241;28;20475;-53
2022/07/16 01:31:22;;;;;;;20.25;3.50;;;;;;;;;;4949046;28;20595;-49
2022/07/16 01:34:35;;;;;;;23.42;3.67;;;;;;;;;;4946059;28;20094;-49
2022/07/16 01:36:40;;;;;;;25.13;4.73;;;;;;;;;;4947966;28;20115;-48
2022/07/16 01:39:08;;;;;;;21.98;3.30;;;;;;;;;;4947507;28;20378;-50
2022/07/16 01:41:35;;;;;;;21.80;4.22;;;;;;;;;;4945526;28;20211;-47
2022/07/16 01:44:02;;;;;;;20.27;3.40;;;;;;;;;;4947702;28;20047;-48
2022/07/16 01:46:30;;;;;;;23.35;4.10;;;;;;;;;;4951841;28;20055;-50
2022/07/16 01:48:57;;;;;;;28.63;3.80;;;;;;;;;;4952953;28;20535;-61
2022/07/16 01:51:24;;;;;;;18.40;3.33;;;;;;;;;;4949076;28;20074;-49
2022/07/16 01:53:52;;;;;;;19.77;3.25;;;;;;;;;;4950120;28;20087;-52
2022/07/16 01:56:19;;;;;;;19.95;4.18;;;;;;;;;;4944820;28;20055;-53
2022/07/16 01:58:46;;;;;;;;;;;;;;;;;;4950649;28;20055;-50
2022/07/16 02:01:14;;;;;;;19.92;3.40;;;;;;;;;;4947208;28;20395;-50
2022/07/16 02:03:41;;;;;;;22.25;3.15;;;;;;;;;;4949087;28;20071;-53
2022/07/16 02:06:08;;;;;;;;;;;;;;;;;;4951777;28;20090;-51
2022/07/16 02:08:36;;;;;;;24.17;4.03;;;;;;;;;;4949221;28;19926;-61
2022/07/16 02:11:03;;;;;;;17.77;3.08;;;;;;;;;;4949512;28;21854;-55
2022/07/16 02:13:31;;;;;;;24.35;3.30;;;;;;;;;;4950568;28;20125;-52
2022/07/16 02:15:58;;;;;;;16.13;3.17;;;;;;;;;;4951348;28;20114;-51
2022/07/16 02:18:25;;;;;;;25.48;3.53;;;;;;;;;;4942959;28;20147;-54
2022/07/16 02:20:53;;;;;;;27.33;3.72;;;;;;;;;;4945965;28;20058;-51
2022/07/16 02:23:20;;;;;;;15.23;3.20;;;;;;;;;;4945534;28;20047;-57
2022/07/16 02:25:47;;;;;;;20.77;3.80;;;;;;;;;;4952469;28;20532;-57
2022/07/16 02:28:15;;;;;;;21.65;3.47;;;;;;;;;;4944802;28;20125;-60
2022/07/16 02:30:44;;;;;;;26.60;3.33;;;;;;;;;;4949770;28;20079;-60
2022/07/16 02:33:12;;;;;;;24.08;4.03;;;;;;;;;;4946429;28;20089;-59
2022/07/16 02:35:39;;;;;;;21.40;3.33;;;;;;;;;;4947645;28;20102;-59
2022/07/16 02:38:07;;;;;;;21.48;3.55;;;;;;;;;;4942895;28;20902;-59
2022/07/16 02:40:34;;;;;;;;;;;;;;;;;;4948747;28;20043;-60
2022/07/16 02:43:03;;;;;;;21.88;3.47;;;;;;;;;;4950392;28;19969;-59
2022/07/16 02:45:31;;;;;;;15.88;2.88;;;;;;;;;;4944017;28;20181;-55
2022/07/16 02:47:58;;;;;;;21.15;3.85;;;;;;;;;;4947814;28;20075;-59
2022/07/16 02:50:26;;;;;;;;;;;;;;;;;;4944041;28;20055;-60
2022/07/16 02:52:53;;;;;;;14.48;3.05;;;;;;;;;;4944274;28;20021;-60
2022/07/16 02:55:20;;;;;;;18.88;3.22;;;;;;;;;;4949217;28;20086;-60
2022/07/16 02:57:48;;;;;;;26.90;3.05;;;;;;;;;;4949207;28;20138;-60
2022/07/16 03:00:16;;;;;;;15.57;2.83;;;;;;;;;;4947863;28;20048;-60
2022/07/16 03:02:44;;;;;;;22.40;3.75;;;;;;;;;;4949192;28;20390;-61
2022/07/16 03:05:11;;;;;;;17.80;3.28;;;;;;;;;;4950013;28;20058;-59
2022/07/16 03:07:38;;;;;;;14.38;3.28;;;;;;;;;;4946412;28;20056;-58
2022/07/16 03:10:07;;;;;;;24.23;3.45;;;;;;;;;;4947092;28;20074;-59
2022/07/16 03:12:34;;;;;;;20.98;3.58;;;;;;;;;;4946767;28;20097;-57
2022/07/16 03:15:02;;;;;;;14.32;3.25;;;;;;;;;;4947198;28;20469;-57
2022/07/16 03:17:30;;;;;;;20.08;3.10;;;;;;;;;;4946709;28;20508;-57
2022/07/16 03:19:57;;;;;;;18.40;4.15;;;;;;;;;;4945894;28;20527;-53
2022/07/16 03:22:25;;;;;;;16.73;3.05;;;;;;;;;;4943691;28;20090;-53
2022/07/16 03:24:52;;;;;;;21.33;3.75;;;;;;;;;;4947094;28;20055;-62
2022/07/16 03:27:19;;;;;;;13.85;3.22;;;;;;;;;;4947802;28;20285;-55
2022/07/16 03:29:46;;;;;;;21.23;3.63;;;;;;;;;;4948977;28;20598;-57
2022/07/16 03:32:14;;;;;;;16.13;3.40;;;;;;;;;;4945324;28;20083;-56
2022/07/16 03:34:41;;;;;;;15.15;2.97;;;;;;;;;;4947005;28;20050;-57
2022/07/16 03:37:08;;;;;;;18.10;3.30;;;;;;;;;;4944236;28;20067;-56
2022/07/16 03:39:36;;;;;;;14.82;2.90;;;;;;;;;;4945538;28;20079;-58
2022/07/16 03:42:03;;;;;;;22.55;3.35;;;;;;;;;;4946898;28;20051;-62
2022/07/16 03:44:30;;;;;;;15.20;2.90;;;;;;;;;;4945851;28;20051;-60
2022/07/16 03:46:57;;;;;;;15.20;2.92;;;;;;;;;;4945561;28;20051;-61
2022/07/16 03:49:25;;;;;;;12.35;2.60;;;;;;;;;;4946360;28;20523;-61
2022/07/16 03:51:52;;;;;;;19.30;3.22;;;;;;;;;;4946671;28;20059;-61
2022/07/16 03:54:19;;;;;;;12.38;2.95;;;;;;;;;;4948996;28;20082;-62
2022/07/16 03:56:47;;;;;;;17.23;2.95;;;;;;;;;;4948256;28;20051;-61
2022/07/16 03:59:14;;;;;;;14.43;2.88;;;;;;;;;;4947327;28;20093;-61
2022/07/16 04:01:41;;;;;;;11.65;2.60;;;;;;;;;;4945996;28;20079;-62
2022/07/16 04:04:09;;;;;;;10.93;2.10;;;;;;;;;;4948475;28;20074;-62
2022/07/16 04:06:36;;;;;;;12.52;2.50;;;;;;;;;;4941222;28;20127;-60
2022/07/16 04:09:03;;;;;;;10.43;2.65;;;;;;;;;;4944345;28;20512;-60
2022/07/16 04:11:31;;;;;;;11.20;2.88;;;;;;;;;;4945672;28;20055;-61
2022/07/16 04:13:58;;;;;;;9.88;2.50;;;;;;;;;;4948929;28;20543;-60
2022/07/16 04:16:25;;;;;;;10.45;2.17;;;;;;;;;;4947144;28;20059;-60
2022/07/16 04:18:53;;;;;;;8.48;2.60;;;;;;;;;;4948068;28;20527;-61
2022/07/16 04:21:20;;;;;;;10.73;2.15;;;;;;;;;;4943199;28;20509;-62
2022/07/16 04:23:47;;;;;;;9.10;2.22;;;;;;;;;;4945962;28;20500;-62
2022/07/16 04:26:15;;;;;;;8.18;1.85;;;;;;;;;;4944802;28;20050;-62
2022/07/16 04:28:42;;;;;;;12.50;2.35;;;;;;;;;;4945055;28;20094;-62
2022/07/16 04:31:09;;;;;;;11.77;2.67;;;;;;;;;;4951122;28;20055;-62
2022/07/16 04:33:37;;;;;;;;;;;;;;;;;;4946519;28;20051;-61
2022/07/16 04:36:04;;;;;;;6.93;2.28;;;;;;;;;;4947451;28;19926;-62
2022/07/16 04:38:32;;;;;;;15.32;2.85;;;;;;;;;;4946132;28;20493;-62
2022/07/16 04:40:59;;;;;;;;;;;;;;;;;;4946176;28;20059;-61
2022/07/16 04:43:27;;;;;;;9.13;2.20;;;;;;;;;;4946660;28;19958;-62
2022/07/16 04:45:54;;;;;;;11.25;2.53;;;;;;;;;;4946035;28;20048;-61
2022/07/16 04:48:22;;;;;;;10.68;2.63;;;;;;;;;;4948995;28;20523;-61
2022/07/16 04:50:50;;;;;;;12.48;3.15;;;;;;;;;;4947525;28;20043;-61
2022/07/16 04:53:17;;;;;;;13.05;2.58;;;;;;;;;;4952457;28;20568;-61
2022/07/16 04:55:45;;;;;;;10.57;2.92;;;;;;;;;;4954000;28;20086;-61
2022/07/16 04:58:12;;;;;;;19.23;2.63;;;;;;;;;;4951972;28;20055;-61
2022/07/16 05:00:39;;;;;;;13.23;2.80;;;;;;;;;;4949799;28;20094;-60
2022/07/16 05:03:07;;;;;;;12.90;3.03;;;;;;;;;;4951482;28;20054;-63
2022/07/16 05:05:35;;;;;;;13.13;2.45;;;;;;;;;;4950318;28;20488;-63
2022/07/16 05:08:04;;;;;;;8.80;2.78;;;;;;;;;;4948706;28;20106;-63
2022/07/16 05:10:31;;;;;;;17.55;3.05;;;;;;;;;;4949584;28;20501;-62
2022/07/16 05:12:58;;;;;;;;;;;;;;;;;;4948131;28;20074;-63
2022/07/16 05:15:26;;;;;;;16.55;3.40;;;;;;;;;;4950747;28;19981;-63
2022/07/16 05:17:54;;;;;;;18.98;3.42;;;;;;;;;;4952888;28;20102;-58
2022/07/16 05:20:21;;;;;;;;;;;;;;;;;;4949490;28;20054;-62
2022/07/16 05:22:49;;;;;;;14.25;2.85;;;;;;;;;;4952309;28;19923;-61
2022/07/16 05:25:16;;;;;;;8.40;2.83;;;;;;;;;;4947105;28;20203;-62
2022/07/16 05:27:44;;;;;;;9.55;2.70;;;;;;;;;;4953379;28;20047;-61
2022/07/16 05:30:11;;;;;;;;;;;;;;;;;;4949264;28;20122;-61
2022/07/16 05:32:40;;;;;;;15.07;3.13;;;;;;;;;;4947806;28;20383;-61
2022/07/16 05:35:08;;;;;;;13.27;3.35;;;;;;;;;;4949483;28;20121;-61
2022/07/16 05:37:35;;;;;;;;;;;;;;;;;;4948503;28;20094;-63
2022/07/16 05:40:03;;;;;;;13.27;3.40;;;;;;;;;;4954741;28;19922;-69
2022/07/16 05:42:30;;;;;;;13.63;3.50;;;;;;;;;;4946433;28;20102;-67
2022/07/16 05:44:58;;;;;;;17.90;3.05;;;;;;;;;;4953109;28;20382;-67
2022/07/16 05:47:25;;;;;;;12.82;2.72;;;;;;;;;;4956686;28;20059;-68
2022/07/16 05:49:52;;;;;;;11.68;2.60;;;;;;;;;;4946685;28;20477;-67
2022/07/16 05:52:19;;;;;;;15.80;3.53;;;;;;;;;;4949698;28;20075;-68
2022/07/16 05:54:47;;;;;;;10.23;2.42;;;;;;;;;;4951231;28;20479;-66
2022/07/16 05:57:14;;;;;;;14.00;3.42;;;;;;;;;;4945398;28;20047;-54
2022/07/16 05:59:41;;;;;;;10.63;2.75;;;;;;;;;;4948323;28;20094;-63
2022/07/16 06:02:08;;;;;;;12.48;2.47;;;;;;;;;;4946402;28;20082;-64
2022/07/16 06:04:36;;;;;;;12.25;2.72;;;;;;;;;;4945544;28;20130;-64
2022/07/16 06:07:03;;;;;;;9.80;2.67;;;;;;;;;;4953143;28;20050;-65
2022/07/16 06:09:31;;;;;;;9.68;2.58;;;;;;;;;;4952113;28;20513;-64
2022/07/16 06:11:58;;;;;;;9.68;2.30;;;;;;;;;;4945494;28;20086;-64
2022/07/16 06:14:25;;;;;;;6.60;1.60;;;;;;;;;;4945484;28;20055;-56
2022/07/16 06:16:53;;;;;;;;;;;;;;;;;;4948393;28;20091;-61
2022/07/16 06:19:20;;;;;;;9.48;2.55;;;;;;;;;;4949141;28;19966;-65
2022/07/16 06:21:47;;;;;;;8.85;2.45;;;;;;;;;;4947578;28;20074;-64
2022/07/16 06:24:14;;;;;;;8.38;2.15;;;;;;;;;;4948165;28;20083;-65
2022/07/16 06:26:46;;;;;;;5.15;2.85;;;;;;;;;;4949213;28;20070;-65
2022/07/16 06:29:15;;;;;;;10.25;3.20;;;;;;;;;;4943125;28;20174;-65
2022/07/16 06:31:43;;;;;;;8.50;2.90;;;;;;;;;;4942385;28;20058;-65
2022/07/16 06:34:10;;;;;;;9.65;3.17;;;;;;;;;;4942740;28;20074;-57
2022/07/16 06:36:38;;;;;;;6.53;2.70;;;;;;;;;;4947330;28;20109;-61
2022/07/16 06:39:05;;;;;;;5.90;2.28;;;;;;;;;;4949814;28;20074;-62
2022/07/16 06:41:33;;;;;;;4.88;1.90;;;;;;;;;;4948861;28;20086;-62
2022/07/16 06:44:00;;;;;;;6.93;1.95;;;;;;;;;;4947488;28;20138;-61
2022/07/16 06:46:28;;;;;;;6.63;2.25;;;;;;;;;;4946891;28;20051;-61
2022/07/16 06:48:55;;;;;;;2.15;1.10;;;;;;;;;;4951071;28;20129;-61
2022/07/16 06:51:22;;;;;;;1.45;0.80;;;;;;;;;;4941421;28;20528;-61
2022/07/16 06:53:49;;;;;;;1.65;1.10;;;;;;;;;;4947108;28;20500;-63
2022/07/16 06:56:17;;;;;;;1.48;0.75;;;;;;;;;;4948099;28;20058;-57
2022/07/16 06:58:44;;;;;;;2.15;0.80;;;;;;;;;;4948046;28;20158;-55
2022/07/16 07:01:11;;;;;;;0.77;0.77;;;;;;;;;;4949038;28;20043;-55
2022/07/16 07:03:39;;;;;;;2.15;0.95;;;;;;;;;;4952917;28;20090;-51
2022/07/16 07:06:07;;;;;;;2.13;0.80;;;;;;;;;;4947826;28;20142;-55
2022/07/16 07:08:35;;;;;;;2.30;1.00;;;;;;;;;;4952682;28;20062;-56
2022/07/16 07:11:02;;;;;;;2.33;0.82;;;;;;;;;;4946135;28;20051;-60
2022/07/16 07:13:30;;;;;;;3.42;0.95;;;;;;;;;;4954912;28;20077;-60
2022/07/16 07:15:58;;;;;;;2.58;0.55;;;;;;;;;;4952689;28;20051;-59
2022/07/16 07:18:25;;;;;;;;;;;;;;;;;;4943247;28;20055;-60
2022/07/16 07:20:55;;;;;;;1.75;0.77;;;;;;;;;;4946662;28;19923;-59
2022/07/16 07:23:23;;;;;;;1.13;0.65;;;;;;;;;;4950691;28;20417;-58
2022/07/16 07:25:50;;;;;;;0.55;0.47;;;;;;;;;;4948825;28;20543;-59
2022/07/16 07:28:17;;;;;;;1.13;0.77;;;;;;;;;;4945546;28;20071;-59
2022/07/16 07:30:45;;;;;;;3.75;0.85;;;;;;;;;;4945743;28;20079;-53
2022/07/16 07:33:13;;;;;;;;;;;;;;;;;;4947976;28;20067;-48
2022/07/16 07:35:41;;;;;;;0.60;0.60;;;;;;;;;;4946241;28;19997;-60
2022/07/16 07:38:08;;;;;;;1.05;0.85;;;;;;;;;;4946459;28;20078;-59
2022/07/16 07:40:35;;;;;;;1.38;0.90;;;;;;;;;;4948115;28;20074;-59
2022/07/16 07:43:04;;;;;;;1.35;0.93;;;;;;;;;;4947603;28;20079;-59
2022/07/16 07:45:31;;;;;;;1.02;0.75;;;;;;;;;;4948587;28;20087;-59
2022/07/16 07:47:58;;;;;;;0.75;0.70;;;;;;;;;;4948346;28;20488;-58
2022/07/16 07:50:25;;;;;;;1.95;1.05;;;;;;;;;;4948385;28;20079;-55
2022/07/16 07:52:53;;;;;;;3.90;1.00;;;;;;;;;;4952700;28;20055;-50
2022/07/16 07:55:21;;;;;;;1.63;0.98;;;;;;;;;;4944987;28;20102;-61
2022/07/16 07:57:52;;;;;;;2.95;0.57;;;;;;;;;;4948891;28;20051;-61
2022/07/16 08:00:20;;;;;;;0.85;0.80;;;;;;;;;;4947662;28;20051;-61
2022/07/16 08:02:47;;;;;;;1.77;0.90;;;;;;;;;;4944859;28;20107;-61
2022/07/16 08:05:14;;;;;;;;;;;;;;;;;;4946376;28;20054;-61
2022/07/16 08:07:42;;;;;;;1.55;1.05;;;;;;;;;;4946572;28;20013;-61
2022/07/16 08:10:09;;;;;;;0.80;0.80;;;;;;;;;;4945002;28;20051;-50
2022/07/16 08:12:36;;;;;;;;;;;;;;;;;;4948550;28;20421;-60
2022/07/16 08:15:05;;;;;;;1.90;1.10;;;;;;;;;;4945009;28;19923;-57
2022/07/16 08:17:37;;;;;;;4.45;1.27;;;;;;;;;;4949195;28;20051;-58
2022/07/16 08:20:06;;;;;;;1.92;1.10;;;;;;;;;;4947772;28;20055;-59
2022/07/16 08:22:33;;;;;;;1.00;0.90;;;;;;;;;;4943912;28;21717;-57
2022/07/16 08:27:47;;;;;;;1.13;0.77;;;;;;;;;;4943666;28;20146;-56
2022/07/16 08:30:14;;;;;;;2.58;0.85;;;;;;;;;;4943111;28;20101;-50
2022/07/16 08:32:41;;;;;;;1.83;0.98;;;;;;;;;;4947012;28;20078;-59
2022/07/16 08:35:09;;;;;;;;;;;;;;;;;;4946652;28;20059;-60
2022/07/16 08:37:38;;;;;;;0.70;0.60;;;;;;;;;;4948915;28;19926;-59
2022/07/16 08:40:06;;;;;;;1.70;1.05;;;;;;;;;;4941353;28;20052;-58
2022/07/16 08:42:34;;;;;;;2.13;1.17;;;;;;;;;;4943391;28;20075;-58
2022/07/16 08:45:03;;;;;;;1.85;1.10;;;;;;;;;;4946322;28;20087;-58
2022/07/16 08:47:32;;;;;;;1.75;1.08;;;;;;;;;;4946825;28;20074;-57
2022/07/16 08:50:01;;;;;;;1.02;0.90;;;;;;;;;;4949988;28;20480;-57
2022/07/16 08:52:29;;;;;;;1.50;0.90;;;;;;;;;;4944288;28;20083;-59
2022/07/16 08:54:57;;;;;;;1.13;0.80;;;;;;;;;;4940963;28;20052;-58
2022/07/16 08:57:25;;;;;;;3.15;0.90;;;;;;;;;;4949661;28;20051;-59
2022/07/16 08:59:53;;;;;;;0.93;0.60;;;;;;;;;;4949486;28;20094;-60
2022/07/16 09:02:20;;;;;;;0.50;0.47;;;;;;;;;;4945146;28;20040;-59
2022/07/16 09:04:47;;;;;;;0.93;0.55;;;;;;;;;;4944480;28;20745;-60
2022/07/16 09:07:16;;;;;;;0.65;0.63;;;;;;;;;;4945974;28;20093;-57
2022/07/16 09:09:47;;;;;;;1.27;0.70;;;;;;;;;;4946252;28;20051;-51
2022/07/16 09:12:36;;;;;;;0.73;0.50;;;;;;;;;;4946746;28;20055;-49
2022/07/16 09:15:21;;;;;;;0.73;0.47;;;;;;;;;;4940743;28;20465;-54
2022/07/16 09:18:07;;;;;;;0.60;0.60;;;;;;;;;;4950857;28;20102;-48
2022/07/16 09:20:35;;;;;;;0.50;0.50;;;;;;;;;;4955937;28;20059;-53
2022/07/16 09:23:03;;;;;;;0.75;0.60;;;;;;;;;;4949767;28;20057;-51
2022/07/16 09:25:30;;;;;;;0.60;0.60;;;;;;;;;;4953209;28;20423;-59
2022/07/16 09:27:59;;;;;;;0.73;0.60;;;;;;;;;;4948979;28;20047;-52
2022/07/16 09:30:27;;;;;;;1.55;0.60;;;;;;;;;;4947838;28;20043;-52
2022/07/16 09:32:54;;;;;;;0.88;0.50;;;;;;;;;;4953480;28;20090;-58
2022/07/16 09:35:21;;;;;;;0.40;0.40;;;;;;;;;;4951474;28;20095;-56
2022/07/16 09:37:49;;;;;;;;;;;;;;;;;;4955476;28;20150;-53
2022/07/16 09:40:29;;;;;;;0.38;0.38;;;;;;;;;;4953778;28;19992;-57
2022/07/16 09:42:56;;;;;;;2.15;0.47;;;;;;;;;;4953071;28;20565;-55
2022/07/16 09:45:23;;;;;;;1.67;0.50;;;;;;;;;;4948781;28;20090;-59
2022/07/16 09:47:51;;;;;;;0.50;0.50;;;;;;;;;;4947135;28;20075;-60
2022/07/16 09:50:18;;;;;;;;;;;;;;;;;;4949195;28;20126;-61
2022/07/16 09:52:46;;;;;;;0.68;0.47;;;;;;;;;;4947562;28;19985;-61
2022/07/16 09:55:13;;;;;;;;;;;;;;;;;;4947484;28;20078;-61
2022/07/16 09:57:41;;;;;;;0.30;0.30;;;;;;;;;;4952532;28;20004;-62
2022/07/16 10:00:09;;;;;;;0.65;0.47;;;;;;;;;;4949073;28;20916;-61
2022/07/16 10:02:36;;;;;;;0.35;0.35;;;;;;;;;;4950401;28;20521;-57
2022/07/16 10:05:03;;;;;;;;;;;;;;;;;;4949832;28;20055;-54
2022/07/16 10:07:32;;;;;;;0.70;0.55;;;;;;;;;;4947165;28;19922;-61
2022/07/16 10:10:00;;;;;;;1.08;0.65;;;;;;;;;;4951158;28;20047;-61
2022/07/16 10:12:29;;;;;;;0.95;0.50;;;;;;;;;;4946603;28;20062;-60
2022/07/16 10:14:57;;;;;;;1.55;0.73;;;;;;;;;;4950387;28;20061;-61
2022/07/16 10:17:25;;;;;;;;;;;;;;;;;;4948119;28;21252;-61
2022/07/16 10:20:05;;;;;;;0.30;0.30;;;;;;;;;;4947492;28;19922;-61
2022/07/16 10:22:46;;;;;;;0.93;0.50;;;;;;;;;;4947064;28;20051;-61
2022/07/16 10:25:15;;;;;;;1.00;0.50;;;;;;;;;;4946398;28;20074;-61
2022/07/16 10:27:43;;;;;;;0.63;0.40;;;;;;;;;;4945278;28;20051;-58
2022/07/16 10:30:13;;;;;;;0.60;0.35;;;;;;;;;;4947138;28;20040;-58
2022/07/16 10:32:59;;;;;;;1.52;0.40;;;;;;;;;;4947340;28;20059;-56
2022/07/16 10:35:31;;;;;;;0.22;0.22;;;;;;;;;;4946586;28;20051;-56
2022/07/16 10:38:08;;;;;;;3.15;0.68;;;;;;;;;;4948301;28;20134;-59
2022/07/16 10:41:04;;;;;;;0.82;0.60;;;;;;;;;;4949671;28;20580;-52
2022/07/16 10:43:32;;;;;;;0.65;0.50;;;;;;;;;;4950056;28;20102;-57
2022/07/16 10:46:00;;;;;;;1.17;0.52;;;;;;;;;;4945659;28;20054;-54
2022/07/16 10:48:37;;;;;;;0.70;0.50;;;;;;;;;;4946029;28;20052;-52
2022/07/16 10:51:19;;;;;;;0.68;0.68;;;;;;;;;;4946363;28;20113;-54
2022/07/16 10:54:01;;;;;;;0.60;0.60;;;;;;;;;;4951821;28;20572;-54
2022/07/16 10:56:38;;;;;;;1.80;1.00;;;;;;;;;;4951386;28;20480;-55
2022/07/16 10:59:07;;;;;;;1.00;0.57;;;;;;;;;;4949518;28;20082;-50
2022/07/16 11:01:35;;;;;;;0.80;0.80;;;;;;;;;;4949226;28;20070;-55
2022/07/16 11:04:03;;;;;;;0.70;0.70;;;;;;;;;;4949175;28;20077;-57
2022/07/16 11:06:31;;;;;;;1.27;0.98;;;;;;;;;;4949140;28;20051;-58
2022/07/16 11:08:58;;;;;;;;;;;;;;;;;;4948324;28;20046;-57
2022/07/16 11:11:35;;;;;;;1.15;0.85;;;;;;;;;;4949233;28;19930;-57
2022/07/16 11:14:03;;;;;;;0.80;0.75;;;;;;;;;;4948611;28;20070;-57
2022/07/16 11:16:31;;;;;;;0.95;0.70;;;;;;;;;;4949469;28;20145;-57
2022/07/16 11:19:02;;;;;;;1.25;0.80;;;;;;;;;;4954637;28;20144;-52
2022/07/16 11:21:29;;;;;;;0.85;0.82;;;;;;;;;;4949758;28;20352;-51
2022/07/16 11:24:00;;;;;;;4.43;1.17;;;;;;;;;;4943939;28;20090;-53
2022/07/16 11:26:28;;;;;;;1.02;0.70;;;;;;;;;;4947493;28;20122;-52
2022/07/16 11:28:58;;;;;;;1.20;0.98;;;;;;;;;;4945377;28;20931;-53
2022/07/16 11:31:26;;;;;;;1.60;1.00;;;;;;;;;;4948715;28;20130;-50
2022/07/16 11:33:54;;;;;;;0.93;0.90;;;;;;;;;;4945350;28;20047;-55
2022/07/16 11:36:26;;;;;;;0.75;0.75;;;;;;;;;;4944947;28;20059;-53
2022/07/16 11:38:57;;;;;;;1.20;0.93;;;;;;;;;;4946806;28;20082;-57
2022/07/16 11:41:25;;;;;;;2.50;1.08;;;;;;;;;;4946160;28;20051;-61
2022/07/16 11:43:53;;;;;;;1.35;0.88;;;;;;;;;;4947019;28;20059;-56
2022/07/16 11:46:26;;;;;;;0.80;0.80;;;;;;;;;;4952574;28;20122;-52
2022/07/16 11:48:54;;;;;;;1.55;0.95;;;;;;;;;;4945396;28;20039;-55
2022/07/16 11:51:22;;;;;;;1.25;0.85;;;;;;;;;;4942416;28;20098;-57
2022/07/16 11:53:53;;;;;;;1.40;0.93;;;;;;;;;;4949061;28;20050;-52
2022/07/16 11:56:32;;;;;;;2.40;0.90;;;;;;;;;;4942980;28;20071;-54
2022/07/16 11:59:00;;;;;;;0.93;0.90;;;;;;;;;;4947514;28;20070;-61
2022/07/16 12:01:27;;;;;;;;;;;;;;;;;;4947711;28;20082;-52
2022/07/16 12:03:55;;;;;;;3.55;1.08;;;;;;;;;;4948097;28;20058;-50
2022/07/16 12:06:23;;;;;;;1.73;1.20;;;;;;;;;;4941913;28;20047;-52
2022/07/16 12:08:54;;;;;;;1.25;1.00;;;;;;;;;;4945529;28;20101;-48
2022/07/16 12:11:29;;;;;;;0.70;0.70;;;;;;;;;;4946573;28;20079;-52
2022/07/16 12:13:57;;;;;;;0.95;0.80;;;;;;;;;;4944653;28;20461;-51
2022/07/16 12:16:25;;;;;;;1.00;0.90;;;;;;;;;;4943101;28;20055;-52
2022/07/16 12:19:19;;;;;;;1.00;0.90;;;;;;;;;;4943480;28;20409;-58
2022/07/16 12:21:48;;;;;;;0.95;0.85;;;;;;;;;;4942996;28;20051;-57
2022/07/16 12:24:15;;;;;;;0.95;0.80;;;;;;;;;;4946231;28;20098;-55
2022/07/16 12:26:42;;;;;;;0.80;0.80;;;;;;;;;;4936349;28;20424;-52
2022/07/16 12:29:12;;;;;;;1.27;1.00;;;;;;;;;;4903676;29;20478;-59
2022/07/16 12:31:39;;;;;;;1.58;0.90;;;;;;;;;;4906350;29;20053;-54
2022/07/16 12:34:07;;;;;;;1.08;0.85;;;;;;;;;;4910119;29;20052;-55
2022/07/16 12:36:39;;;;;;;0.80;0.80;;;;;;;;;;4904512;28;20056;-58
2022/07/16 12:39:10;;;;;;;1.17;0.90;;;;;;;;;;4906849;29;29229;-59
2022/07/16 12:41:42;;;;;;;1.45;1.10;;;;;;;;;;4902712;29;20057;-59
2022/07/16 12:44:20;;;;;;;0.80;0.80;;;;;;;;;;4908247;29;20068;-59
2022/07/16 12:46:48;;;;;;;1.50;1.30;;;;;;;;;;4910055;29;20051;-59
2022/07/16 12:49:25;;;;;;;1.20;1.05;;;;;;;;;;4908150;29;20048;-59
2022/07/16 12:51:56;;;;;;;0.80;0.80;;;;;;;;;;4911193;29;20051;-58
2022/07/16 12:54:24;;;;;;;1.10;1.00;;;;;;;;;;4909853;29;20044;-52
2022/07/16 12:59:37;;;;;;;0.80;0.80;;;;;;;;;;4909222;29;20052;-53
2022/07/16 13:02:06;;;;;;;2.08;1.00;;;;;;;;;;4909719;29;20048;-53
2022/07/16 13:04:34;;;;;;;1.10;1.00;;;;;;;;;;4906141;29;20135;-53
2022/07/16 13:07:03;;;;;;;0.98;0.98;;;;;;;;;;4906278;29;20505;-46
2022/07/16 13:09:30;;;;;;;0.90;0.90;;;;;;;;;;4909776;29;20056;-50
2022/07/16 13:11:57;;;;;;;1.17;0.88;;;;;;;;;;4913531;29;20115;-52
2022/07/16 13:14:24;;;;;;;;;;;;;;;;;;4914153;29;20099;-58
2022/07/16 13:16:53;;;;;;;2.17;0.90;;;;;;;;;;4911024;29;19950;-59
2022/07/16 13:19:21;;;;;;;0.95;0.85;;;;;;;;;;4915267;29;20086;-58
2022/07/16 13:21:49;;;;;;;1.38;0.95;;;;;;;;;;4912590;29;20052;-58
2022/07/16 13:24:17;;;;;;;1.40;0.75;;;;;;;;;;4912665;29;20131;-58
2022/07/16 13:26:45;;;;;;;0.70;0.70;;;;;;;;;;4911469;29;20521;-58
2022/07/16 13:29:32;;;;;;;0.83;0.83;;;;;;;;;;4909875;29;20478;-58
2022/07/16 13:32:00;;;;;;;1.02;0.90;;;;;;;;;;4917278;29;20076;-58
2022/07/16 13:34:27;;;;;;;1.13;0.90;;;;;;;;;;4915658;29;20068;-54
2022/07/16 13:36:55;;;;;;;1.13;0.80;;;;;;;;;;4913341;29;20083;-56
2022/07/16 13:39:22;;;;;;;1.23;1.00;;;;;;;;;;4912125;29;20079;-57
2022/07/16 13:41:49;;;;;;;1.30;0.85;;;;;;;;;;4912348;29;20043;-54
2022/07/16 13:44:17;;;;;;;0.80;0.80;;;;;;;;;;4910535;29;20048;-55
2022/07/16 13:46:44;;;;;;;;;;;;;;;;;;4913389;29;20048;-56
2022/07/16 13:49:11;;;;;;;2.75;0.80;;;;;;;;;;4915958;29;20471;-56
2022/07/16 13:51:39;;;;;;;1.77;0.88;;;;;;;;;;4910918;29;20428;-55
2022/07/16 13:54:10;;;;;;;1.27;0.80;;;;;;;;;;4912538;29;20052;-58
2022/07/16 13:56:38;;;;;;;8.77;0.95;;;;;;;;;;4913868;29;20056;-59
2022/07/16 13:59:06;;;;;;;0.80;0.60;;;;;;;;;;4915148;29;20065;-59
2022/07/16 14:01:33;;;;;;;;;;;;;;;;;;4912003;29;20076;-59
2022/07/16 14:04:01;;;;;;;2.65;0.52;;;;;;;;;;4913517;29;20325;-59
2022/07/16 14:06:29;;;;;;;2.05;0.70;;;;;;;;;;4913629;29;20139;-58
2022/07/16 14:08:56;;;;;;;1.10;0.88;;;;;;;;;;4915126;29;20458;-59
2022/07/16 14:11:24;;;;;;;2.92;1.10;;;;;;;;;;4910090;29;20048;-56
2022/07/16 14:13:51;;;;;;;1.30;0.98;;;;;;;;;;4917896;29;20075;-55
2022/07/16 14:16:20;;;;;;;;;;;;;;;;;;4913401;29;20051;-57
2022/07/16 14:18:47;;;;;;;1.10;0.88;;;;;;;;;;4914943;29;19930;-54
2022/07/16 14:21:14;;;;;;;0.93;0.80;;;;;;;;;;4912820;29;20411;-55
2022/07/16 14:23:42;;;;;;;1.17;0.88;;;;;;;;;;4915819;29;20051;-52
2022/07/16 14:26:09;;;;;;;;;;;;;;;;;;4913239;29;20628;-56
2022/07/16 14:28:37;;;;;;;1.38;0.77;;;;;;;;;;4911094;29;20340;-55
2022/07/16 14:31:04;;;;;;;;;;;;;;;;;;4915991;29;20056;-59
2022/07/16 14:33:31;;;;;;;2.80;0.70;;;;;;;;;;4914615;29;19927;-59
2022/07/16 14:35:59;;;;;;;1.38;0.80;;;;;;;;;;4909268;29;20052;-59
2022/07/16 14:38:26;;;;;;;0.80;0.65;;;;;;;;;;4911527;29;20052;-59
2022/07/16 14:40:55;;;;;;;;;;;;;;;;;;4899553;29;20162;-59
2022/07/16 14:43:23;;;;;;;0.60;0.60;;;;;;;;;;4906999;29;19971;-58
2022/07/16 14:45:51;;;;;;;0.60;0.50;;;;;;;;;;4909334;29;20075;-58
2022/07/16 14:48:18;;;;;;;;;;;;;;;;;;4909015;29;20131;-59
2022/07/16 14:50:46;;;;;;;1.45;0.70;;;;;;;;;;4908325;29;19927;-58
2022/07/16 14:53:13;;;;;;;;;;;;;;;;;;4899257;29;20056;-59
2022/07/16 14:55:40;;;;;;;0.60;0.57;;;;;;;;;;4907356;29;19974;-59
2022/07/16 14:58:08;;;;;;;0.77;0.70;;;;;;;;;;4907347;29;20111;-59
2022/07/16 15:00:41;;;;;;;0.88;0.70;;;;;;;;;;4904047;29;20044;-59
2022/07/16 15:03:09;;;;;;;0.60;0.60;;;;;;;;;;4902687;29;20074;-59